Create Tblcommutelog Verified Points Advance Search
| # | Trip ID | Id Commuter | Trip Date | Trip Num | Current Lat | Current Lng | Delta Distance | Current Time | Activity | Activity Confidence | Current Speed | |
|---|---|---|---|---|---|---|---|---|---|---|---|---|
| 73681 | 250220_700992_16557105_1703 | 700992 | (not set) | (not set) | 39.072875895495 | -77.163209287805 | 8.03 | 2025-02-20 22:38:26.254 | in_vehicle | 100 | 10.91222831189 | |
| 73682 | 250220_766077_16632982_1615 | 766077 | (not set) | (not set) | 38.794046992182 | -77.15092780407 | 13.7021 | 2025-02-20 22:38:28.218 | in_vehicle | 100 | 12.168408629646 | |
| 73683 | 250220_700992_16557105_1703 | 700992 | (not set) | (not set) | 39.074283584818 | -77.165002678112 | 8.1669 | 2025-02-20 22:38:35.246 | in_vehicle | 100 | 11.144688726564 | |
| 73684 | 250220_769517_16636581_1732 | 769517 | (not set) | (not set) | 38.80127912656 | -77.045529401207 | 0.4015 | 2025-02-20 22:38:35.259 | on_bicycle | 100 | 2.8565808649316 | |
| 73685 | 250220_766077_16632982_1615 | 766077 | (not set) | (not set) | 38.793508081624 | -77.154414503432 | 13.894 | 2025-02-20 22:38:39.215 | in_vehicle | 100 | 12.807674769998 | |
| 73686 | 250220_700992_16557105_1703 | 700992 | (not set) | (not set) | 39.074923051585 | -77.165825109739 | 8.2294 | 2025-02-20 22:38:39.249 | in_vehicle | 100 | 11.247507756131 | |
| 73687 | 250220_769517_16636581_1732 | 769517 | (not set) | (not set) | 38.80037055285 | -77.04573956589 | 0.4652 | 2025-02-20 22:38:48.21 | on_foot | 100 | 3.2276234498914 | |
| 73688 | 250220_766077_16632982_1615 | 766077 | (not set) | (not set) | 38.79268372455 | -77.158415631453 | 14.1173 | 2025-02-20 22:38:51.242 | in_vehicle | 100 | 13.84480585085 | |
| 73689 | 250220_700992_16557105_1703 | 700992 | (not set) | (not set) | 39.077065452292 | -77.168200164274 | 8.4247 | 2025-02-20 22:38:51.248 | in_vehicle | 100 | 11.900185074253 | |
| 73690 | 250220_769517_16636581_1732 | 769517 | (not set) | (not set) | 38.800171505767 | -77.045744030182 | 0.4789 | 2025-02-20 22:38:52.23 | on_foot | 100 | 2.7984657612632 | |
| 73691 | 250220_769517_16636581_1732 | 769517 | (not set) | (not set) | 38.799482735392 | -77.045935571817 | 0.5275 | 2025-02-20 22:39:02.23 | on_foot | 100 | 3.7372482051374 | |
| 73692 | 250220_766077_16632982_1615 | 766077 | (not set) | (not set) | 38.791846388204 | -77.162402193069 | 14.3401 | 2025-02-20 22:39:03.227 | in_vehicle | 100 | 13.026724006902 | |
| 73693 | 250220_700992_16557105_1703 | 700992 | (not set) | (not set) | 39.079497326209 | -77.170161623011 | 8.6228 | 2025-02-20 22:39:03.271 | in_vehicle | 100 | 12.02982645936 | |
| 73694 | 250220_766077_16632982_1615 | 766077 | (not set) | (not set) | 38.79142285236 | -77.166477373267 | 14.5621 | 2025-02-20 22:39:15.2 | in_vehicle | 100 | 13.706223680564 | |
| 73695 | 250220_700992_16557105_1703 | 700992 | (not set) | (not set) | 39.082096379199 | -77.17183845191 | 8.8235 | 2025-02-20 22:39:15.247 | in_vehicle | 100 | 12.03429685195 | |
| 73696 | 250220_780216_16647898_1732 | 780216 | (not set) | (not set) | 38.8970561 | -77.0435866 | 0 | 2025-02-20 22:39:21.229 | in_vehicle | 100 | -0.44703925898772 | |
| 73697 | 250220_780216_16647898_1732 | 780216 | (not set) | (not set) | 38.8970561 | -77.0435866 | 0 | 2025-02-20 22:39:21.229 | in_vehicle | 100 | -0.44703925898772 | |
| 73698 | 250220_780216_16647898_1732 | 780216 | (not set) | (not set) | 38.8970561 | -77.0435866 | 0 | 2025-02-20 22:39:21.233 | in_vehicle | 100 | -0.44703925898772 | |
| 73699 | 250220_780216_16647898_1732 | 780216 | (not set) | (not set) | 38.8970561 | -77.0435866 | 0 | 2025-02-20 22:39:21.239 | in_vehicle | 100 | -0.44703925898772 | |
| 73700 | 250220_780216_16647898_1732 | 780216 | (not set) | (not set) | 38.8970561 | -77.0435866 | 0 | 2025-02-20 22:39:21.234 | in_vehicle | 100 | -0.44703925898772 |